x

Sentry Shoal (46131) Wave Buoy

10:00 - Fri 1st Aug 2014 All times are PDT. -7 hours from GMT.

  • Sig Wave height 0.7ft
  • Peak Period 2s
  • Wind
    16mph, 18mph gusts
  • Sea Temp 64°f
  • Air Temp 69°f
  • Sea Pressure 1014.5mb
  • Sentry Shoal
  • Sentry Shoal

More Historic Weather Station data

Upgrade to MSW Pro to gain access to the past 30 days of data for over 8000 Wavebouys and Weather Stations around the globe.

Join Pro

Comparision Forecast

View Surf forecast
   
ven. 08/01 10:00 0.7ft 2s 16 18 mph 1014.5mb 64f 69f
9:00 0.3ft 3s 11 13 mph 1014.3mb 67f 70f
8:00 0.3ft 5s  -  2 mph 1014.2mb 68f 72f
7:00 0.3ft 2s 2
mph
1014.1mb 68f 70f
6:00 0.3ft 2s 7
mph
1014.2mb 68f 71f
5:00 0.3ft 3s 4
mph
1014.7mb 69f 73f
4:00 0.3ft 4s 4
mph
1015.3mb 65f 71f
3:00 0.3ft 3s 4
mph
1016mb 67f 70f
2:00 0.3ft 3s 4
mph
1016.5mb 66f 69f
1:00 0.3ft 2s 2 4 mph 1017.1mb 64f 67f
12:00 0.3ft 4s 4
mph
1017.5mb 64f 66f
11:00 0.3ft 2s 7
mph
1017.8mb 64f 64f
10:00 0.7ft 2s 9 11 mph 1018mb 63f 63f
9:00 0.7ft 2s 9 11 mph 1018.5mb 63f 62f
8:00 1ft 2s 11 13 mph 1018.6mb 62f 61f
7:00 1ft 3s 11 13 mph 1018.4mb 61f 61f
6:00 1ft 3s 13 16 mph 1017.8mb 62f 62f
5:00 1ft 3s 13 16 mph 1017.7mb 62f 62f
4:00 1ft 2s 13 16 mph 1017.7mb 62f 62f
3:00 1ft 2s 16 18 mph 1017.5mb 62f 63f
2:00 1ft 3s 16 18 mph 1017.4mb 63f 64f
1:00 1.3ft 3s 13 18 mph 1017.3mb 62f 64f
12:00 1.3ft 3s 18 20 mph 1017.1mb 63f 66f
jeu. 07/31 11:00 1ft 2s 18
mph
1017.1mb 64f 67f
10:00 0.7ft 2s 16 18 mph 1017mb 65f 69f
9:00 0.3ft 2s 16 18 mph 1016.6mb 67f 71f
8:00 0.3ft 2s 9 11 mph 1016.6mb 68f 74f
7:00  -  3s 7 9 mph 1016.7mb 70f 73f
6:00 0.3ft 4s 4
mph
1017.1mb 68f 75f
5:00 0.3ft 5s 4
mph
1017.7mb 70f 74f
3:00 0.3ft 2s 2
mph
1019mb 68f 71f
2:00 0.3ft 2s 2
mph
1019.6mb 64f 69f
1:00 0.3ft 2s 4
mph
1019.9mb 64f 67f
12:00 0.3ft 2s 4 7 mph 1020.1mb 63f 66f
11:00 0.3ft 2s 7 9 mph 1020.3mb 63f 65f
10:00 0.7ft 2s 9
mph
1020.4mb 63f 63f
9:00 1ft 2s 9 11 mph 1020.7mb 62f 62f
8:00 1ft 2s 11 13 mph 1020.6mb 62f 62f
7:00 1ft 2s 13 18 mph 1020.3mb 62f 62f
6:00 1.3ft 3s 13 16 mph 1020.1mb 63f 62f
5:00 1ft 3s 13 18 mph 1020mb 63f 62f
4:00 1ft 3s 13 16 mph 1020mb 64f 63f
3:00 1.3ft 3s 13 16 mph 1019.9mb 63f 63f
2:00 1.3ft 3s 16 18 mph 1019.6mb 64f 64f
1:00 1.3ft 3s 18 22 mph 1019.6mb 65f 65f
12:00 1.3ft 3s 18 22 mph 1019.4mb 65f 66f
mer. 07/30 11:00 1ft 3s 18 20 mph 1019.1mb 65f 67f
10:00 1ft 3s 16 20 mph 1018.9mb 66f 69f
9:00 0.7ft 2s 18 20 mph 1018.5mb 67f 70f
8:00  -  2s 16 18 mph 1018.3mb 68f 72f
7:00 0.3ft 4s 4 7 mph 1018.5mb 70f 74f
6:00 0.3ft 5s 4
mph
1018.7mb 69f 74f
5:00 0.3ft 3s 2
mph
1019mb 71f 74f
4:00 0.3ft 3s 2 4 mph 1019.6mb 69f 72f
3:00 0.3ft 3s 2 4 mph 1020.1mb 68f 71f
2:00 0.3ft 2s 2 4 mph 1020.4mb 67f 69f
1:00 0.3ft 2s 2 4 mph 1020.7mb 66f 67f
12:00 0.3ft 2s 4
mph
1020.9mb 65f 66f
11:00 0.3ft 2s 7 9 mph 1020.9mb 64f 65f
10:00 0.3ft 2s 9 11 mph 1021mb 64f 64f
9:00 0.7ft 2s 9 11 mph 1021.2mb 63f 62f
8:00 0.7ft 2s 9 11 mph 1021mb 64f 62f
7:00 1ft 3s 11 13 mph 1020.7mb 64f 62f
6:00 1ft 2s 13
mph
1020.2mb 65f 62f
5:00 1.3ft 2s 16 18 mph 1019.7mb 65f 62f
4:00 1.3ft 3s 13 18 mph 1019.6mb 65f 63f
3:00 1ft 3s 13 18 mph 1019.4mb 65f 64f
2:00 1ft 3s 16 18 mph 1019.1mb 66f 64f
1:00 1.3ft 3s 13 16 mph 1018.9mb 65f 65f
12:00 1.3ft 3s 16 18 mph 1018.2mb 65f 65f
mar. 07/29 10:00 1.3ft 3s 16 20 mph 1017.5mb 66f 68f
9:00 0.3ft 2s 18 22 mph 1017mb 67f 71f
8:00 0.3ft 2s 4
mph
1016.6mb 70f 75f
7:00 0.3ft 2s  -  2 mph 1016.9mb 71f 76f
6:00 0.3ft 2s  -  2 mph 1017.2mb 69f 76f
5:00 0.3ft 3s 2
mph
1017.7mb 71f 76f
4:00 0.3ft 3s 2
mph
1018.4mb 74f 75f
3:00 0.3ft 4s 2 4 mph 1019mb 72f 74f
2:00 0.3ft 2s 2
mph
1019.6mb 71f 73f
1:00 0.3ft 3s 2
mph
1019.9mb 72f 72f
12:00  -  2s  -  2 mph 1020.2mb 69f 72f
11:00 0.3ft 2s 2
mph
1020.3mb 68f 69f
10:00 0.3ft 2s 4
mph
1020.2mb 68f 68f
9:00 0.3ft 2s 4
mph
1020.3mb 67f 67f
8:00 0.3ft 2s 7 9 mph 1020.1mb 67f 67f
7:00 0.3ft 2s 7 9 mph 1019.9mb 67f 66f